createdAt,value
2022-09-01T00:01:20.853Z,1.70
2022-09-01T00:06:24.332Z,1.65
2022-09-01T00:11:28.007Z,1.48
2022-09-01T00:16:30.943Z,1.92
2022-09-01T00:21:37.192Z,1.83
2022-09-01T00:26:39.037Z,2.38
2022-09-01T00:31:41.835Z,2.30
2022-09-01T00:36:43.883Z,1.27
2022-09-01T00:41:47.070Z,2.15
2022-09-01T00:46:55.085Z,1.58
2022-09-01T00:52:03.832Z,1.50
2022-09-01T00:57:06.503Z,1.60
2022-09-01T01:02:08.213Z,1.75
2022-09-01T01:07:11.284Z,2.13
2022-09-01T01:12:17.570Z,2.25
2022-09-01T01:17:22.217Z,1.73
2022-09-01T01:22:54.204Z,2.22
2022-09-01T01:28:19.131Z,2.00
2022-09-01T01:33:32.063Z,1.83
2022-09-01T01:38:36.018Z,1.67
2022-09-01T01:43:38.818Z,1.92
2022-09-01T01:48:42.551Z,1.60
2022-09-01T01:53:45.196Z,2.10
2022-09-01T01:58:46.791Z,1.70
2022-09-01T02:03:54.807Z,2.10
2022-09-01T02:08:58.323Z,2.10
2022-09-01T02:14:00.979Z,1.70
2022-09-01T02:19:06.992Z,2.10
2022-09-01T02:24:09.041Z,1.80
2022-09-01T02:29:19.043Z,2.05
2022-09-01T02:34:24.158Z,2.03
2022-09-01T02:39:32.687Z,2.10
2022-09-01T02:44:36.311Z,2.05
2022-09-01T02:49:43.047Z,1.88
2022-09-01T02:54:45.903Z,1.80
2022-09-01T02:59:48.489Z,2.10
2022-09-01T03:04:54.402Z,2.17
2022-09-01T03:09:56.134Z,2.00
2022-09-01T03:14:57.744Z,2.60
2022-09-01T03:19:59.704Z,1.90
2022-09-01T03:25:01.373Z,1.90
2022-09-01T03:30:04.206Z,1.70
2022-09-01T03:35:06.676Z,2.35
2022-09-01T03:40:09.096Z,2.00
2022-09-01T03:45:14.170Z,1.83
2022-09-01T03:50:21.860Z,1.70
2022-09-01T03:55:28.533Z,2.17
2022-09-01T04:00:30.207Z,1.75
2022-09-01T04:05:33.938Z,1.80
2022-09-01T04:10:42.096Z,1.85
2022-09-01T04:15:44.584Z,2.10
2022-09-01T04:20:56.875Z,2.25
2022-09-01T04:26:00.231Z,1.95
2022-09-01T04:31:06.155Z,1.98
2022-09-01T04:36:19.611Z,2.38
2022-09-01T04:41:25.880Z,2.22
2022-09-01T04:46:29.544Z,1.92
2022-09-01T04:51:31.265Z,2.22
2022-09-01T04:56:35.539Z,1.90
2022-09-01T05:01:45.639Z,2.00
2022-09-01T05:07:01.050Z,1.80
2022-09-01T05:12:15.836Z,1.83
2022-09-01T05:17:21.598Z,2.40
2022-09-01T05:22:25.861Z,2.08
2022-09-01T05:27:33.238Z,1.73
2022-09-01T05:32:37.315Z,2.10
2022-09-01T05:37:39.823Z,2.05
2022-09-01T05:42:44.124Z,2.20
2022-09-01T05:47:46.682Z,2.30
2022-09-01T05:52:51.053Z,2.50
2022-09-01T05:57:53.960Z,2.40
2022-09-01T06:02:58.689Z,2.60
2022-09-01T06:08:00.854Z,2.50
2022-09-01T06:13:03.398Z,3.45
2022-09-01T06:18:06.986Z,2.78
2022-09-01T06:23:15.517Z,2.28
2022-09-01T06:28:21.284Z,2.25
2022-09-01T06:33:25.219Z,2.88
2022-09-01T06:38:27.349Z,2.80
2022-09-01T06:43:30.816Z,2.80
2022-09-01T06:48:32.480Z,3.22
2022-09-01T06:53:39.211Z,2.95
2022-09-01T06:58:47.506Z,7.25
2022-09-01T07:03:52.151Z,2.75
2022-09-01T07:09:32.151Z,3.03
2022-09-01T07:20:28.463Z,2.75
2022-09-01T07:25:35.763Z,2.83
2022-09-01T07:36:33.113Z,2.38
2022-09-01T07:47:19.897Z,2.22
2022-09-01T07:52:22.766Z,1.80
2022-09-01T07:57:29.897Z,2.30
2022-09-01T08:02:33.059Z,2.50
2022-09-01T08:07:51.729Z,2.17
2022-09-01T08:12:57.529Z,1.50
2022-09-01T08:18:01.309Z,1.35
2022-09-01T08:23:07.316Z,1.45
2022-09-01T08:28:11.974Z,1.60
2022-09-01T08:33:15.593Z,1.27
2022-09-01T08:38:19.958Z,1.42
2022-09-01T08:43:37.790Z,1.45
2022-09-01T08:54:38.308Z,1.63
2022-09-01T08:59:40.350Z,1.23
2022-09-01T09:05:24.739Z,1.00
2022-09-01T09:10:37.505Z,0.95
2022-09-01T09:16:08.335Z,0.95
2022-09-01T09:21:29.972Z,1.10
2022-09-01T09:26:47.858Z,1.00
2022-09-01T09:32:02.850Z,1.70
2022-09-01T09:37:21.081Z,1.38
2022-09-01T09:42:22.854Z,1.05
2022-09-01T09:47:46.291Z,2.08
2022-09-01T09:52:50.083Z,1.10
2022-09-01T09:57:56.932Z,1.10
2022-09-01T10:03:08.625Z,0.70
2022-09-01T10:08:37.543Z,1.08
2022-09-01T10:13:39.451Z,1.13
2022-09-01T10:18:44.898Z,1.23
2022-09-01T10:23:46.590Z,1.08
2022-09-01T10:29:20.403Z,1.30
2022-09-01T10:34:23.975Z,1.00
2022-09-01T10:39:30.910Z,1.00
2022-09-01T10:44:38.972Z,1.05
2022-09-01T10:50:09.895Z,1.35
2022-09-01T10:55:25.064Z,0.80
2022-09-01T11:00:35.282Z,0.90
2022-09-01T11:06:12.026Z,1.15
2022-09-01T11:11:21.412Z,1.38
2022-09-01T11:16:47.174Z,0.90
2022-09-01T11:22:06.087Z,0.70
2022-09-01T11:27:50.715Z,0.90
2022-09-01T11:33:00.095Z,1.05
2022-09-01T11:43:16.556Z,0.75
2022-09-01T11:48:18.955Z,1.73
2022-09-01T11:53:24.255Z,0.73
2022-09-01T11:58:28.993Z,0.85
2022-09-01T12:03:30.920Z,1.33
2022-09-01T12:08:38.798Z,0.90
2022-09-01T12:13:53.794Z,0.80
2022-09-01T12:18:59.099Z,0.95
2022-09-01T12:24:17.723Z,0.90
2022-09-01T12:29:19.559Z,0.57
2022-09-01T12:34:59.386Z,0.90
2022-09-01T12:40:01.186Z,1.25
2022-09-01T12:45:05.453Z,0.90
2022-09-01T12:50:27.346Z,0.90
2022-09-01T12:55:47.855Z,1.00
2022-09-01T13:00:58.937Z,0.80
2022-09-01T13:06:02.869Z,0.95
2022-09-01T13:11:11.296Z,0.80
2022-09-01T13:16:14.083Z,1.10
2022-09-01T13:21:16.180Z,0.85
2022-09-01T13:26:17.979Z,0.30
2022-09-01T13:31:29.109Z,0.90
2022-09-01T13:36:51.171Z,1.25
2022-09-01T13:41:53.021Z,1.23
2022-09-01T13:52:17.333Z,0.85
2022-09-01T13:57:19.280Z,1.00
2022-09-01T14:02:21.086Z,0.50
2022-09-01T14:07:22.731Z,0.60
2022-09-01T14:12:24.617Z,1.00
2022-09-01T14:17:26.462Z,0.70
2022-09-01T14:22:28.337Z,0.80
2022-09-01T14:27:30.092Z,0.80
2022-09-01T14:32:31.795Z,1.08
2022-09-01T14:37:33.976Z,0.82
2022-09-01T14:42:37.154Z,1.00
2022-09-01T14:47:39.523Z,0.82
2022-09-01T14:52:41.424Z,1.00
2022-09-01T14:57:43.135Z,0.50
2022-09-01T15:02:45.682Z,0.80
2022-09-01T15:07:47.882Z,0.52
2022-09-01T15:12:49.914Z,0.73
2022-09-01T15:17:51.759Z,1.20
2022-09-01T15:22:53.865Z,0.65
2022-09-01T15:27:55.681Z,0.85
2022-09-01T15:32:57.424Z,0.90
2022-09-01T15:38:00.228Z,0.93
2022-09-01T15:43:02.086Z,1.00
2022-09-01T15:48:03.863Z,0.70
2022-09-01T15:53:08.512Z,0.45
2022-09-01T15:58:12.113Z,0.90
2022-09-01T16:03:13.866Z,0.90
2022-09-01T16:08:15.564Z,0.90
2022-09-01T16:13:17.623Z,1.00
2022-09-01T16:18:32.768Z,0.90
2022-09-01T16:23:43.131Z,1.10
2022-09-01T16:28:49.285Z,0.75
2022-09-01T16:33:57.097Z,1.20
2022-09-01T16:39:08.186Z,0.77
2022-09-01T16:44:31.651Z,1.00
2022-09-01T16:50:03.994Z,0.90
2022-09-01T16:55:24.950Z,0.93
2022-09-01T17:05:45.676Z,0.95
2022-09-01T17:11:11.238Z,1.00
2022-09-01T17:16:29.556Z,0.65
2022-09-01T17:21:53.536Z,1.00
2022-09-01T17:27:05.062Z,1.45
2022-09-01T17:33:01.126Z,1.10
2022-09-01T17:38:13.977Z,1.48
2022-09-01T17:43:27.783Z,1.50
2022-09-01T17:48:43.925Z,1.15
2022-09-01T17:54:08.915Z,1.25
2022-09-01T17:59:43.997Z,1.30
2022-09-01T18:05:02.258Z,1.00
2022-09-01T18:10:07.848Z,0.77
2022-09-01T18:15:16.449Z,1.70
2022-09-01T18:20:43.244Z,1.10
2022-09-01T18:25:49.602Z,1.23
2022-09-01T18:31:00.521Z,0.90
2022-09-01T18:36:32.164Z,1.52
2022-09-01T18:42:15.529Z,1.10
2022-09-01T18:47:28.371Z,1.83
2022-09-01T18:52:33.311Z,1.20
2022-09-01T18:57:38.238Z,1.50
2022-09-01T19:02:45.817Z,1.67
2022-09-01T19:08:07.344Z,1.30
2022-09-01T19:13:28.158Z,1.58
2022-09-01T19:18:50.867Z,2.13
2022-09-01T19:24:01.705Z,1.95
2022-09-01T19:29:18.821Z,2.03
2022-09-01T19:34:41.499Z,1.75
2022-09-01T19:39:48.812Z,1.83
2022-09-01T19:45:12.653Z,1.75
2022-09-01T19:50:36.019Z,1.60
2022-09-01T19:55:46.498Z,1.83
2022-09-01T20:00:53.563Z,1.23
2022-09-01T20:06:19.160Z,2.08
2022-09-01T20:11:51.885Z,1.17
2022-09-01T20:16:59.996Z,1.90
2022-09-01T20:22:21.445Z,2.13
2022-09-01T20:27:33.957Z,1.30
2022-09-01T20:32:53.540Z,1.48
2022-09-01T20:43:22.837Z,1.75
2022-09-01T20:48:27.823Z,1.50
2022-09-01T20:53:54.735Z,1.65
2022-09-01T20:59:08.738Z,1.80
2022-09-01T21:04:48.946Z,2.13
2022-09-01T21:15:38.805Z,1.42
2022-09-01T21:20:40.439Z,1.50
2022-09-01T21:25:44.326Z,1.80
2022-09-01T21:30:52.069Z,4.45
2022-09-01T21:35:54.397Z,2.20
2022-09-01T21:40:58.559Z,2.60
2022-09-01T21:46:01.209Z,1.95
2022-09-01T21:51:06.707Z,1.75
2022-09-01T21:56:08.575Z,3.83
2022-09-01T22:01:12.032Z,2.20
2022-09-01T22:06:16.184Z,1.85
2022-09-01T22:11:18.804Z,1.52
2022-09-01T22:16:21.917Z,1.50
2022-09-01T22:21:24.597Z,1.50
2022-09-01T22:26:30.215Z,1.35
2022-09-01T22:31:34.870Z,1.80
2022-09-01T22:36:43.634Z,1.58
2022-09-01T22:41:45.318Z,1.33
2022-09-01T22:46:46.994Z,1.42
2022-09-01T22:51:50.273Z,1.30
2022-09-01T22:56:52.708Z,1.23
2022-09-01T23:01:58.099Z,1.40
2022-09-01T23:06:59.951Z,1.02
2022-09-01T23:12:01.675Z,1.10
2022-09-01T23:17:03.452Z,1.05
2022-09-01T23:22:05.158Z,1.58
2022-09-01T23:27:06.883Z,1.50
2022-09-01T23:32:08.679Z,1.20
2022-09-01T23:37:10.739Z,1.67
2022-09-01T23:42:12.524Z,1.40
2022-09-01T23:47:14.307Z,1.20
2022-09-01T23:52:16.214Z,1.42
2022-09-01T23:57:19.051Z,1.30
